Time;durP1;ratioP1;P1;durP2;ratioP2;P2;SDS_P1;SDS_P2;PMS_P1;PMS_P2;Temp;Humidity;BMP_temperature;BMP_pressure;BME280_temperature;BME280_humidity;BME280_pressure;Samples;Min_cycle;Max_cycle;Signal;HPM_P1;HPM_P2
2021/07/27 00:02:06;;;;;;;9.30;7.10;;;15.30;99.90;;;16.09;100.00;97850.19;5283275;28;20240;-81
2021/07/27 00:04:39;;;;;;;6.70;5.93;;;15.30;99.90;;;16.12;100.00;97843.44;5282278;28;20203;-80
2021/07/27 00:07:14;;;;;;;7.20;6.50;;;15.30;99.90;;;16.15;100.00;97838.38;5282930;28;20282;-80
2021/07/27 00:09:47;;;;;;;7.25;6.40;;;15.30;99.90;;;16.13;100.00;97834.88;5286991;28;20276;-80
2021/07/27 00:12:20;;;;;;;6.72;6.03;;;15.30;99.90;;;16.09;100.00;97825.28;5285106;28;20258;-80
2021/07/27 00:14:53;;;;;;;6.85;5.60;;;15.20;99.90;;;16.10;100.00;97826.16;5293369;28;20754;-80
2021/07/27 00:17:28;;;;;;;8.93;6.03;;;15.20;99.90;;;16.07;100.00;97826.06;5293603;28;20244;-80
2021/07/27 00:20:02;;;;;;;6.10;5.50;;;15.20;99.90;;;16.01;100.00;97826.72;5293034;28;20199;-80
2021/07/27 00:22:40;;;;;;;5.85;4.97;;;15.20;99.90;;;16.00;100.00;97812.09;5290615;28;20221;-80
2021/07/27 00:25:15;;;;;;;6.18;5.68;;;15.20;99.90;;;15.98;100.00;97806.00;5284862;28;20191;-80
2021/07/27 00:27:48;;;;;;;5.60;5.13;;;15.10;99.90;;;15.93;100.00;97802.38;5292072;28;20198;-80
2021/07/27 00:30:22;;;;;;;5.50;4.93;;;15.00;99.90;;;15.88;100.00;97824.53;5277240;28;20266;-80
2021/07/27 00:32:55;;;;;;;4.55;4.15;;;15.00;99.90;;;15.82;100.00;97819.16;5291238;28;20310;-80
2021/07/27 00:35:31;;;;;;;4.85;4.43;;;14.90;99.90;;;15.76;100.00;97820.69;5286598;28;20201;-80
2021/07/27 00:38:17;;;;;;;7.45;4.32;;;14.70;99.90;;;15.78;100.00;97820.75;5284383;28;20819;-80
2021/07/27 00:40:50;;;;;;;4.78;4.38;;;14.80;99.90;;;15.69;100.00;97817.84;5292734;28;20294;-80
2021/07/27 00:43:24;;;;;;;6.32;4.90;;;14.80;99.90;;;15.73;100.00;97817.13;5290945;28;20225;-80
2021/07/27 00:45:57;;;;;;;6.53;4.75;;;14.90;99.90;;;15.71;100.00;97822.25;5292159;28;20282;-81
2021/07/27 00:48:30;;;;;;;26.60;5.85;;;14.80;99.90;;;15.62;100.00;97815.81;5292283;28;20195;-80
2021/07/27 00:51:04;;;;;;;4.60;3.60;;;14.80;99.90;;;15.61;100.00;97817.53;5293247;28;20230;-80
2021/07/27 00:53:38;;;;;;;5.18;4.38;;;14.60;99.90;;;15.51;100.00;97816.31;5292503;28;20219;-80
2021/07/27 00:56:12;;;;;;;5.57;5.07;;;14.70;99.90;;;15.60;100.00;97813.22;5292065;28;20705;-80
2021/07/27 00:58:46;;;;;;;17.58;5.72;;;14.70;99.90;;;15.62;100.00;97811.53;5288675;28;20283;-80
2021/07/27 01:01:19;;;;;;;8.05;5.65;;;14.80;99.90;;;15.65;100.00;97810.78;5288697;28;20286;-81
2021/07/27 01:03:52;;;;;;;67.65;7.22;;;14.80;99.90;;;15.58;100.00;97813.97;5285940;28;20234;-80
2021/07/27 01:06:26;;;;;;;7.03;3.67;;;14.70;99.90;;;15.51;100.00;97807.72;5287727;28;20721;-80
2021/07/27 01:09:02;;;;;;;6.95;4.57;;;14.50;99.90;;;15.53;100.00;97813.78;5291871;28;20377;-79
2021/07/27 01:11:40;;;;;;;10.27;3.42;;;14.70;99.90;;;15.43;100.00;97809.13;5291435;28;20277;-80
2021/07/27 01:14:14;;;;;;;5.00;3.75;;;14.40;99.90;;;15.36;100.00;97809.72;5291241;28;20309;-80
2021/07/27 01:16:47;;;;;;;3.58;3.28;;;14.40;99.90;;;15.27;100.00;97803.38;5291925;28;20211;-81
2021/07/27 01:19:32;;;;;;;3.72;3.42;;;14.40;99.90;;;15.26;100.00;97811.94;5287079;28;20191;-79
2021/07/27 01:42:08;;;;;;;4.72;4.32;;;14.00;99.90;;;14.93;100.00;97814.09;5289498;28;20251;-81
2021/07/27 01:44:45;;;;;;;4.28;3.92;;;14.00;99.90;;;14.94;100.00;97815.00;5290113;28;20298;-81
2021/07/27 01:47:19;;;;;;;4.78;4.38;;;14.00;99.90;;;14.95;100.00;97811.59;5291322;28;20195;-80
2021/07/27 01:49:52;;;;;;;4.40;4.10;;;14.10;99.90;;;15.00;100.00;97815.22;5290895;28;20222;-80
2021/07/27 01:52:25;;;;;;;4.93;4.55;;;14.20;99.90;;;15.03;100.00;97812.78;5290530;28;20217;-82
2021/07/27 01:55:07;;;;;;;5.35;4.85;;;14.20;99.90;;;15.09;100.00;97818.16;5291236;28;20198;-80
2021/07/27 01:57:40;;;;;;;4.28;3.97;;;14.30;99.90;;;15.11;100.00;97819.09;5291228;28;20207;-80
2021/07/27 02:00:14;;;;;;;5.38;4.88;;;14.30;99.90;;;15.10;100.00;97814.75;5290717;28;20201;-80
2021/07/27 02:02:47;;;;;;;4.72;4.43;;;14.20;99.90;;;15.08;100.00;97812.13;5291990;28;20219;-81
2021/07/27 02:05:21;;;;;;;5.10;4.70;;;14.20;99.90;;;15.06;100.00;97825.75;5290307;28;20241;-81
2021/07/27 02:07:55;;;;;;;5.25;4.82;;;14.20;99.90;;;14.98;100.00;97819.44;5289463;28;20217;-80
2021/07/27 02:10:30;;;;;;;4.30;4.00;;;14.20;99.90;;;14.96;100.00;97821.94;5284111;28;20198;-80
2021/07/27 02:13:12;;;;;;;4.20;3.90;;;14.10;99.90;;;15.01;100.00;97816.97;5283141;28;20223;-80
2021/07/27 02:15:45;;;;;;;4.50;4.10;;;14.20;99.90;;;14.99;100.00;97819.47;5290007;28;20195;-80
2021/07/27 02:18:19;;;;;;;6.03;4.20;;;14.20;99.90;;;15.03;100.00;97829.09;5290805;28;20571;-80
2021/07/27 02:20:53;;;;;;;5.18;4.78;;;14.10;99.90;;;15.05;100.00;97821.41;5290368;28;20300;-80
2021/07/27 02:23:27;;;;;;;5.22;4.82;;;14.20;99.90;;;15.09;100.00;97833.59;5287729;28;20685;-80
2021/07/27 02:26:02;;;;;;;4.65;4.22;;;14.20;99.90;;;15.10;100.00;97832.75;5278215;28;20279;-81
2021/07/27 02:28:35;;;;;;;5.80;4.80;;;14.20;99.90;;;15.13;100.00;97826.84;5289223;28;20665;-81
2021/07/27 02:31:13;;;;;;;5.40;4.57;;;14.30;99.90;;;15.08;100.00;97822.44;5284328;28;20226;-80
2021/07/27 02:33:46;;;;;;;4.97;4.57;;;14.10;99.90;;;15.12;100.00;97827.69;5283262;28;20237;-81
2021/07/27 02:36:20;;;;;;;4.93;4.53;;;14.20;99.90;;;15.09;100.00;97831.03;5290498;28;20571;-80
2021/07/27 02:38:53;;;;;;;5.50;5.00;;;14.30;99.90;;;15.08;100.00;97826.69;5290118;28;20647;-80
2021/07/27 02:41:34;;;;;;;5.22;4.75;;;14.20;99.90;;;15.06;100.00;97834.34;5289532;28;20275;-80
2021/07/27 02:44:07;;;;;;;4.57;4.22;;;14.10;99.90;;;14.93;100.00;97833.81;5289226;28;20211;-81
2021/07/27 02:46:40;;;;;;;4.07;3.72;;;14.00;99.90;;;14.91;100.00;97838.91;5290291;28;20234;-80
2021/07/27 02:49:14;;;;;;;7.68;3.72;;;13.80;99.90;;;14.78;100.00;97841.81;5290092;28;20677;-80
2021/07/27 02:51:49;;;;;;;4.18;3.78;;;13.70;99.90;;;14.70;100.00;97843.19;5290034;28;20639;-80
2021/07/27 02:54:22;;;;;;;4.28;3.97;;;13.70;99.90;;;14.70;100.00;97836.34;5287885;28;20314;-80
2021/07/27 02:56:59;;;;;;;8.63;4.65;;;13.80;99.90;;;14.62;100.00;97835.13;5268456;28;20278;-79
2021/07/27 02:59:32;;;;;;;4.50;4.10;;;13.70;99.90;;;14.56;100.00;97829.75;5269005;28;20275;-80
2021/07/27 03:02:05;;;;;;;4.00;3.55;;;13.60;99.90;;;14.59;100.00;97824.72;5288749;28;20277;-80
2021/07/27 03:04:38;;;;;;;3.15;2.95;;;13.70;99.90;;;14.56;100.00;97832.31;5289451;28;20203;-80
2021/07/27 03:07:18;;;;;;;6.28;4.30;;;13.70;99.90;;;14.52;100.00;97839.03;5287393;28;20195;-79
2021/07/27 03:12:44;;;;;;;4.35;4.05;;;13.70;99.90;;;14.66;100.00;97842.19;5268450;28;20219;-80
2021/07/27 03:15:18;;;;;;;5.13;4.55;;;13.80;99.90;;;14.71;100.00;97847.50;5278651;28;20293;-80
2021/07/27 03:17:54;;;;;;;5.05;4.65;;;13.90;99.90;;;14.74;100.00;97840.81;5288602;28;20295;-81
2021/07/27 03:20:31;;;;;;;5.35;4.88;;;13.80;99.90;;;14.71;100.00;97845.84;5289432;28;20746;-81
2021/07/27 03:23:04;;;;;;;4.70;4.25;;;13.80;99.90;;;14.72;100.00;97845.00;5289158;28;20210;-80
2021/07/27 03:25:39;;;;;;;3.92;3.70;;;13.80;99.90;;;14.69;100.00;97842.31;5289481;28;20207;-80
2021/07/27 03:28:17;;;;;;;4.47;4.13;;;13.80;99.90;;;14.71;100.00;97834.63;5288350;28;20193;-80
2021/07/27 03:30:51;;;;;;;4.63;4.22;;;13.80;99.90;;;14.73;100.00;97844.19;5288630;28;20203;-80
2021/07/27 03:33:24;;;;;;;5.38;4.97;;;13.90;99.90;;;14.77;100.00;97835.78;5288483;28;20218;-80
2021/07/27 03:35:57;;;;;;;7.55;4.72;;;13.90;99.90;;;14.83;100.00;97833.44;5288591;28;20286;-80
2021/07/27 03:38:30;;;;;;;5.38;4.97;;;13.80;99.90;;;14.79;100.00;97844.44;5288420;28;20191;-81
2021/07/27 03:41:05;;;;;;;4.50;4.20;;;13.80;99.90;;;14.63;100.00;97836.91;5289588;28;20580;-81
2021/07/27 03:43:40;;;;;;;14.02;5.38;;;13.70;99.90;;;14.60;100.00;97836.78;5289102;28;20600;-80
2021/07/27 03:46:13;;;;;;;36.55;5.82;;;13.70;99.90;;;14.57;100.00;97836.66;5280919;28;20193;-79
2021/07/27 03:48:46;;;;;;;4.60;4.18;;;13.50;99.90;;;14.54;100.00;97836.56;5283700;28;20666;-80
2021/07/27 03:51:19;;;;;;;8.50;4.55;;;13.60;99.90;;;14.51;100.00;97841.53;5289742;28;20229;-81
2021/07/27 03:53:53;;;;;;;41.08;6.18;;;13.60;99.90;;;14.56;100.00;97843.47;5289748;28;20602;-81
2021/07/27 03:56:26;;;;;;;5.50;4.35;;;13.60;99.90;;;14.47;100.00;97847.34;5289016;28;20194;-81
2021/07/27 03:59:00;;;;;;;4.38;4.05;;;13.50;99.90;;;14.46;100.00;97843.03;5285658;28;20293;-81
2021/07/27 04:01:33;;;;;;;5.72;5.07;;;13.50;99.90;;;14.56;100.00;97846.06;5277992;28;20289;-80
2021/07/27 04:04:07;;;;;;;5.22;4.72;;;13.70;99.90;;;14.63;100.00;97845.50;5290837;28;20651;-80
2021/07/27 04:06:43;;;;;;;4.80;4.40;;;13.70;99.90;;;14.68;100.00;97850.84;5290875;28;20670;-81
2021/07/27 04:09:16;;;;;;;4.82;4.43;;;13.70;99.90;;;14.68;100.00;97843.13;5290554;28;20239;-79
2021/07/27 04:11:50;;;;;;;4.32;3.95;;;13.80;99.90;;;14.69;100.00;97854.31;5290582;28;20283;-81
2021/07/27 04:14:24;;;;;;;4.97;4.28;;;13.70;99.90;;;14.67;100.00;97849.06;5290039;28;20235;-81
2021/07/27 04:16:58;;;;;;;4.88;4.57;;;13.70;99.90;;;14.66;100.00;97855.06;5290803;28;20209;-79
2021/07/27 04:19:32;;;;;;;8.25;4.50;;;13.80;99.90;;;14.64;100.00;97856.66;5289995;28;20217;-80
2021/07/27 04:22:06;;;;;;;5.25;4.70;;;13.70;99.90;;;14.62;100.00;97856.63;5289934;28;20640;-80
2021/07/27 04:24:40;;;;;;;4.63;4.22;;;13.70;99.90;;;14.66;100.00;97852.47;5289907;28;20238;-80
2021/07/27 04:27:13;;;;;;;5.40;4.45;;;13.70;99.90;;;14.69;100.00;97852.59;5289698;28;20199;-80
2021/07/27 04:29:49;;;;;;;4.55;4.10;;;13.80;99.90;;;14.72;100.00;97841.56;5289754;28;20193;-80
2021/07/27 04:32:22;;;;;;;5.10;4.60;;;13.80;99.90;;;14.77;100.00;97840.94;5289406;28;20218;-80
2021/07/27 04:34:56;;;;;;;4.65;4.30;;;13.80;99.90;;;14.83;100.00;97841.16;5290622;28;20669;-79
2021/07/27 04:37:29;;;;;;;4.72;4.40;;;13.90;99.90;;;14.88;100.00;97833.66;5290283;28;20606;-80
2021/07/27 04:40:03;;;;;;;6.53;5.82;;;13.90;99.90;;;14.83;100.00;97830.88;5289660;28;20191;-81
2021/07/27 04:42:37;;;;;;;23.08;6.30;;;13.90;99.90;;;14.90;100.00;97837.13;5289496;28;20487;-79
2021/07/27 04:45:12;;;;;;;5.95;5.38;;;13.80;99.90;;;14.81;100.00;97829.94;5288689;28;20295;-80
2021/07/27 04:47:45;;;;;;;5.25;4.85;;;13.70;99.90;;;14.92;100.00;97838.09;5289282;28;20286;-80
2021/07/27 04:50:19;;;;;;;6.85;5.45;;;13.90;99.90;;;14.97;100.00;97838.28;5286481;28;20757;-79
2021/07/27 04:52:57;;;;;;;5.25;4.85;;;13.70;99.90;;;14.95;100.00;97829.59;5288904;28;20211;-80
2021/07/27 04:55:31;;;;;;;8.90;5.40;;;13.80;99.90;;;15.03;100.00;97825.63;5289338;28;20214;-79
2021/07/27 04:58:04;;;;;;;5.65;5.15;;;13.90;99.90;;;15.06;100.00;97823.19;5289119;28;20278;-80
2021/07/27 05:00:39;;;;;;;5.70;5.20;;;14.00;99.90;;;15.08;100.00;97816.41;5294180;28;20234;-79
2021/07/27 05:03:12;;;;;;;5.55;5.15;;;14.00;99.90;;;15.25;100.00;97817.94;5293273;28;20242;-79
2021/07/27 05:05:47;;;;;;;5.80;5.30;;;14.20;99.90;;;15.42;100.00;97815.09;5280079;28;20196;-79
2021/07/27 05:08:21;;;;;;;5.53;5.13;;;14.30;99.90;;;15.48;100.00;97820.47;5279046;28;20275;-80
2021/07/27 05:10:54;;;;;;;5.88;5.45;;;14.30;99.90;;;15.65;100.00;97819.41;5289977;28;20278;-80
2021/07/27 05:13:27;;;;;;;6.15;5.20;;;14.50;99.90;;;15.81;100.00;97814.84;5292062;28;20249;-81
2021/07/27 05:16:03;;;;;;;6.03;5.53;;;14.50;99.90;;;15.83;100.00;97814.06;5291152;28;20212;-80
2021/07/27 05:18:36;;;;;;;6.05;5.55;;;14.70;99.90;;;15.97;100.00;97820.59;5283530;28;20195;-79
2021/07/27 05:21:09;;;;;;;5.75;5.32;;;14.70;99.90;;;16.06;100.00;97817.44;5271683;28;20282;-79
2021/07/27 05:23:42;;;;;;;5.10;4.70;;;14.80;99.90;;;16.21;100.00;97825.69;5279670;28;20217;-79
2021/07/27 05:26:15;;;;;;;4.90;4.50;;;14.80;99.90;;;16.48;100.00;97824.88;5293035;28;20218;-78
2021/07/27 05:28:48;;;;;;;5.05;4.65;;;15.00;99.90;;;16.74;100.00;97818.00;5286030;28;20641;-80
2021/07/27 05:31:23;;;;;;;4.53;4.22;;;15.20;99.90;;;16.75;100.00;97819.75;5289546;28;20546;-79
2021/07/27 05:33:57;;;;;;;5.05;4.50;;;15.10;99.90;;;16.77;100.00;97810.41;5291847;28;20286;-79
2021/07/27 05:36:32;;;;;;;4.95;4.55;;;15.10;99.90;;;16.79;99.76;97813.00;5292322;28;20199;-79
2021/07/27 05:39:05;;;;;;;13.02;5.38;;;15.20;99.90;;;16.60;97.59;97812.41;5291473;28;20199;-79
2021/07/27 05:41:39;;;;;;;4.93;4.53;;;15.10;99.90;;;16.71;97.79;97817.00;5292930;28;20195;-79
2021/07/27 05:44:12;;;;;;;4.82;4.43;;;15.20;99.90;;;17.06;100.00;97818.19;5291353;28;20661;-80
2021/07/27 05:46:47;;;;;;;4.70;4.30;;;15.50;99.90;;;17.43;98.51;97815.00;5292506;28;20641;-79
2021/07/27 05:49:21;;;;;;;4.40;4.10;;;15.70;99.90;;;17.73;97.50;97811.53;5292768;28;20649;-79
2021/07/27 05:51:55;;;;;;;4.88;4.38;;;16.00;99.90;;;17.92;94.29;97807.78;5281377;28;20264;-79
2021/07/27 05:54:28;;;;;;;4.50;4.13;;;16.10;99.90;;;17.90;93.39;97804.25;5273973;28;20251;-80
2021/07/27 05:57:01;;;;;;;3.90;3.60;;;16.00;99.90;;;18.20;92.89;97804.22;5286236;27;20279;-76
2021/07/27 05:59:34;;;;;;;4.63;4.30;;;16.10;99.90;;;18.72;95.29;97804.66;5287121;28;20203;-79
2021/07/27 06:02:09;;;;;;;4.78;3.45;;;16.60;99.90;;;19.15;91.82;97810.88;5292054;28;20279;-79
2021/07/27 06:04:43;;;;;;;4.07;3.78;;;16.90;99.90;;;19.67;91.56;97805.09;5292384;28;20441;-79
2021/07/27 06:07:16;;;;;;;3.65;3.45;;;17.30;99.90;;;19.99;87.95;97799.66;5292066;28;20237;-79
2021/07/27 06:09:49;;;;;;;3.95;3.65;;;17.40;99.90;;;20.42;87.49;97801.28;5290055;28;20738;-80
2021/07/27 06:12:22;;;;;;;3.42;3.13;;;17.70;99.90;;;20.41;81.68;97806.47;5292986;28;20243;-79
2021/07/27 06:14:55;;;;;;;3.60;3.40;;;17.70;99.90;;;20.75;84.31;97809.69;5292929;28;20268;-79
2021/07/27 06:17:29;;;;;;;3.65;3.35;;;17.90;99.90;;;21.37;81.38;97804.53;5292253;28;20283;-81
2021/07/27 06:20:03;;;;;;;2.85;2.67;;;18.20;99.90;;;22.10;81.43;97796.75;5292353;28;20282;-80
2021/07/27 06:22:37;;;;;;;4.30;3.72;;;18.80;99.90;;;21.94;74.67;97790.50;5288403;28;20302;-79
2021/07/27 06:25:12;;;;;;;4.20;3.90;;;19.10;99.90;;;21.88;74.46;97785.22;5292838;28;20215;-79
2021/07/27 06:27:45;;;;;;;4.18;3.88;;;19.30;99.90;;;22.21;74.00;97789.09;5287205;28;20199;-80
2021/07/27 06:30:19;;;;;;;4.68;4.28;;;19.40;99.90;;;22.25;75.20;97796.94;5293349;28;20597;-80
2021/07/27 06:32:53;;;;;;;4.55;4.15;;;19.50;99.90;;;22.68;73.83;97801.66;5288853;28;20250;-80
2021/07/27 06:35:26;;;;;;;4.78;4.45;;;19.80;99.90;;;23.01;70.94;97797.59;5284266;28;20309;-79
2021/07/27 06:37:59;;;;;;;4.65;4.28;;;20.10;99.90;;;23.38;68.69;97791.75;5292682;28;20217;-79
2021/07/27 06:40:33;;;;;;;4.05;3.75;;;20.40;99.90;;;23.41;70.37;97788.28;5293391;28;20197;-80
2021/07/27 06:43:06;;;;;;;4.00;3.70;;;20.70;99.90;;;23.96;71.17;97793.75;5292272;28;20293;-79
2021/07/27 06:45:39;;;;;;;4.78;4.47;;;21.10;99.90;;;24.40;68.83;97794.69;5292663;27;20197;-80
2021/07/27 06:48:14;;;;;;;4.60;3.95;;;21.40;99.90;;;24.72;72.29;97792.09;5289742;28;20187;-79
2021/07/27 06:50:47;;;;;;;4.32;3.97;;;21.60;99.90;;;24.98;65.84;97794.72;5281101;28;20281;-79
2021/07/27 06:53:21;;;;;;;4.18;3.88;;;21.90;99.90;;;25.35;64.43;97799.91;5288993;28;20735;-79
2021/07/27 06:55:56;;;;;;;4.25;3.85;;;22.30;99.90;;;25.63;65.47;97793.69;5292802;28;20219;-79
2021/07/27 06:58:29;;;;;;;4.78;4.32;;;22.60;99.90;;;25.73;63.74;97798.91;5293184;28;20304;-79
2021/07/27 07:01:03;;;;;;;5.15;4.57;;;22.90;99.90;;;25.44;60.75;97807.75;5290459;28;20701;-79
2021/07/27 07:03:40;;;;;;;4.50;4.10;;;22.60;99.90;;;25.63;63.72;97814.63;5271861;28;20252;-80
2021/07/27 07:06:13;;;;;;;4.55;4.10;;;22.80;99.90;;;25.67;64.10;97806.78;5279756;28;20206;-80
2021/07/27 07:08:47;;;;;;;6.00;4.47;;;22.60;99.90;;;25.25;65.33;97800.81;5292520;28;20195;-80
2021/07/27 07:11:20;;;;;;;4.68;4.28;;;22.30;99.90;;;24.86;68.52;97813.03;5282082;28;20195;-79
2021/07/27 07:13:53;;;;;;;5.05;4.60;;;22.10;99.90;;;24.65;65.77;97809.56;5292625;28;20635;-79
2021/07/27 07:16:26;;;;;;;5.13;4.65;;;22.40;99.90;;;24.83;65.65;97807.81;5276579;28;20582;-79
2021/07/27 07:19:01;;;;;;;5.32;4.93;;;22.50;99.90;;;24.73;67.73;97818.28;5291570;28;20285;-80
2021/07/27 07:21:34;;;;;;;5.50;4.78;;;22.50;99.90;;;24.68;68.63;97822.63;5291854;28;20208;-80
2021/07/27 07:24:07;;;;;;;5.22;4.82;;;22.40;99.90;;;24.49;69.22;97823.47;5292146;28;20221;-79
2021/07/27 07:26:40;;;;;;;5.35;4.95;;;22.10;99.90;;;24.02;67.54;97825.09;5282019;28;20198;-79
2021/07/27 07:29:14;;;;;;;5.38;4.97;;;21.90;99.90;;;24.17;72.35;97826.00;5292513;28;20210;-79
2021/07/27 07:31:47;;;;;;;5.03;4.55;;;22.00;99.90;;;24.15;71.33;97828.63;5292102;28;20286;-78
2021/07/27 07:34:21;;;;;;;5.75;5.25;;;22.00;99.90;;;24.29;70.61;97823.41;5292682;28;20321;-78
2021/07/27 07:36:55;;;;;;;6.38;5.00;;;22.20;99.90;;;24.60;68.14;97832.19;5290713;28;20249;-79
2021/07/27 07:39:29;;;;;;;5.57;5.00;;;22.60;99.90;;;25.40;69.31;97826.94;5271124;28;20289;-79
2021/07/27 07:42:04;;;;;;;5.55;4.53;;;23.10;99.90;;;26.06;62.72;97824.97;5282429;28;20281;-79
2021/07/27 07:44:38;;;;;;;6.40;5.07;;;23.60;99.90;;;26.31;59.82;97829.22;5283490;28;20190;-79
2021/07/27 07:47:11;;;;;;;5.53;4.95;;;23.80;99.90;;;26.69;63.32;97821.97;5291688;28;20292;-79
2021/07/27 07:49:46;;;;;;;6.22;5.10;;;23.90;99.90;;;26.96;63.20;97831.38;5290981;28;20680;-79
2021/07/27 07:52:19;;;;;;;5.80;5.30;;;23.90;99.90;;;27.27;56.07;97823.25;5274898;28;20229;-79
2021/07/27 07:54:52;;;;;;;4.97;4.57;;;24.20;99.90;;;27.64;58.30;97822.81;5292021;28;20195;-81
2021/07/27 07:57:26;;;;;;;5.70;5.03;;;24.30;99.90;;;27.43;53.20;97825.72;5291666;28;20221;-80
2021/07/27 08:00:01;;;;;;;5.93;5.18;;;24.50;99.90;;;27.79;55.25;97830.56;5292510;28;20213;-79
2021/07/27 08:02:34;;;;;;;6.07;5.43;;;24.60;99.90;;;28.48;54.11;97815.66;5291812;28;20228;-79
2021/07/27 08:05:10;;;;;;;5.90;5.30;;;25.10;99.90;;;28.96;51.21;97818.41;5291217;28;20206;-79
2021/07/27 08:07:43;;;;;;;5.85;5.35;;;25.40;99.90;;;29.32;49.76;97816.03;5291124;28;20282;-79
2021/07/27 08:10:17;;;;;;;5.40;4.90;;;25.80;99.90;;;29.49;49.19;97810.44;5291507;28;20194;-79
2021/07/27 08:12:50;;;;;;;12.73;6.72;;;26.00;99.90;;;28.66;49.86;97820.63;5276727;28;20301;-79
2021/07/27 08:15:25;;;;;;;5.30;4.80;;;26.00;99.90;;;28.30;49.83;97815.00;5291165;28;20281;-80
2021/07/27 08:17:58;;;;;;;5.55;4.88;;;25.80;99.90;;;27.89;50.54;97819.94;5286175;28;20560;-79
2021/07/27 08:20:33;;;;;;;6.15;5.55;;;25.70;99.90;;;27.53;53.17;97819.47;5291253;28;20313;-79
2021/07/27 08:23:06;;;;;;;5.45;4.95;;;25.50;99.90;;;27.51;56.07;97816.00;5287542;28;20218;-79
2021/07/27 08:25:39;;;;;;;5.80;5.30;;;25.30;99.90;;;27.85;54.56;97816.50;5291408;28;20191;-79
2021/07/27 08:28:12;;;;;;;6.93;5.07;;;25.60;99.90;;;27.87;54.09;97825.22;5291499;28;20202;-80
2021/07/27 08:30:45;;;;;;;6.10;5.50;;;25.80;99.90;;;27.92;53.52;97820.78;5289250;28;20195;-79
2021/07/27 08:33:22;;;;;;;5.13;4.72;;;25.80;99.90;;;27.81;52.64;97817.41;5292042;28;20761;-79
2021/07/27 08:35:57;;;;;;;5.50;5.10;;;25.80;99.90;;;27.65;51.67;97827.22;5294978;28;20199;-79
2021/07/27 08:38:35;;;;;;;6.03;5.50;;;25.80;99.90;;;27.42;52.31;97824.84;5291748;28;20256;-79
2021/07/27 08:41:09;;;;;;;5.57;5.10;;;25.40;99.90;;;27.38;53.46;97817.88;5273736;28;20670;-79
2021/07/27 08:43:42;;;;;;;6.25;5.68;;;25.50;99.90;;;27.60;51.93;97821.13;5274009;28;20219;-80
2021/07/27 08:46:16;;;;;;;5.43;4.97;;;25.90;99.90;;;27.70;53.42;97819.25;5294534;28;20591;-79
2021/07/27 08:48:49;;;;;;;5.90;5.30;;;26.00;99.90;;;27.85;51.33;97820.00;5295071;28;20194;-79
2021/07/27 08:51:24;;;;;;;6.03;5.53;;;26.00;99.90;;;27.93;52.48;97816.38;5293828;28;20197;-80
2021/07/27 08:53:57;;;;;;;6.05;5.00;;;26.20;99.90;;;27.92;51.22;97812.88;5294587;28;20224;-79
2021/07/27 08:56:30;;;;;;;5.22;4.88;;;26.10;99.90;;;27.83;51.59;97799.88;5295194;28;20211;-79
2021/07/27 08:59:03;;;;;;;5.47;4.97;;;26.10;99.90;;;27.63;51.70;97813.22;5294819;28;20193;-79
2021/07/27 09:01:37;;;;;;;5.85;5.32;;;26.00;99.90;;;27.28;51.17;97805.75;5294497;28;20195;-79
2021/07/27 09:04:11;;;;;;;6.20;5.60;;;25.60;99.90;;;27.29;51.01;97807.47;5294281;28;20222;-79
2021/07/27 09:06:59;;;;;;;5.70;5.30;;;25.60;99.90;;;27.19;51.54;97817.22;5287625;28;20249;-78
2021/07/27 09:09:34;;;;;;;5.40;4.90;;;25.50;99.90;;;26.96;51.77;97820.88;5292672;28;20207;-78
2021/07/27 09:12:09;;;;;;;5.47;5.07;;;25.50;99.90;;;27.06;52.94;97826.03;5293180;28;20216;-79
2021/07/27 09:14:44;;;;;;;5.53;5.05;;;25.40;99.90;;;26.86;53.47;97819.22;5292066;28;20201;-79
2021/07/27 09:17:25;;;;;;;6.05;5.55;;;25.30;99.90;;;26.65;52.43;97817.63;5283031;28;20301;-79
2021/07/27 09:19:59;;;;;;;5.78;5.28;;;25.20;99.90;;;26.72;53.82;97821.06;5290343;28;20201;-79
2021/07/27 09:22:44;;;;;;;6.03;5.53;;;25.10;99.90;;;26.54;53.38;97816.84;5292972;28;20227;-78
2021/07/27 09:25:19;;;;;;;5.93;5.43;;;24.90;99.90;;;26.25;56.30;97820.50;5293276;28;20729;-78
2021/07/27 09:28:04;;;;;;;6.43;5.82;;;24.90;99.90;;;26.34;54.43;97816.09;5286825;28;20210;-79
2021/07/27 09:30:41;;;;;;;6.65;5.85;;;25.10;99.90;;;26.21;52.61;97817.91;5286668;28;20197;-79
2021/07/27 09:33:15;;;;;;;5.65;5.15;;;25.20;99.90;;;26.34;53.93;97819.56;5286304;28;20354;-78
2021/07/27 09:35:52;;;;;;;5.93;5.43;;;25.20;99.90;;;26.55;55.36;97817.72;5291338;28;20209;-78
2021/07/27 09:38:31;;;;;;;6.47;5.97;;;25.40;99.90;;;26.75;55.32;97815.81;5291425;28;20309;-79
2021/07/27 09:41:07;;;;;;;6.32;5.72;;;25.50;99.90;;;26.97;53.19;97813.88;5292851;28;20194;-77
2021/07/27 09:43:49;;;;;;;5.80;5.30;;;25.80;99.90;;;27.12;52.18;97815.47;5291070;28;20278;-79
2021/07/27 09:46:23;;;;;;;9.32;6.03;;;25.90;99.90;;;27.52;52.50;97815.09;5290300;28;20202;-78
2021/07/27 09:48:56;;;;;;;8.52;6.90;;;26.30;99.90;;;27.83;50.75;97799.88;5284642;28;20187;-79
2021/07/27 09:51:30;;;;;;;8.70;6.75;;;26.70;99.90;;;28.06;50.82;97804.81;5282639;28;20203;-79
2021/07/27 09:54:06;;;;;;;6.18;5.57;;;27.00;99.90;;;28.18;48.17;97804.66;5284712;28;20277;-80
2021/07/27 09:56:39;;;;;;;5.75;5.25;;;27.20;98.50;;;28.43;47.64;97805.19;5283683;28;20195;-80
2021/07/27 09:59:15;;;;;;;5.40;5.00;;;27.50;97.50;;;28.24;45.66;97799.31;5283736;28;20202;-79
2021/07/27 10:01:55;;;;;;;6.13;5.63;;;27.20;96.90;;;28.11;46.54;97805.63;5278953;28;20194;-79
2021/07/27 10:04:32;;;;;;;5.40;5.00;;;26.90;97.30;;;28.23;47.62;97808.09;5273399;28;20219;-79
2021/07/27 10:07:07;;;;;;;5.75;5.20;;;27.10;98.30;;;28.23;47.44;97794.94;5281620;28;20193;-79
2021/07/27 10:09:41;;;;;;;5.78;5.18;;;27.10;97.80;;;28.33;45.87;97794.78;5282209;28;20276;-80
2021/07/27 10:12:14;;;;;;;5.65;5.20;;;27.10;96.80;;;28.00;45.80;97797.91;5288692;28;20190;-78
2021/07/27 10:14:48;;;;;;;5.60;5.10;;;27.10;96.50;;;27.75;44.71;97784.16;5283510;28;20213;-79
2021/07/27 10:17:21;;;;;;;5.45;4.95;;;26.80;95.40;;;27.84;48.32;97792.00;5278735;28;20761;-79
2021/07/27 10:19:57;;;;;;;5.22;4.72;;;27.00;98.20;;;27.95;46.60;97788.34;5279005;28;20201;-80
2021/07/27 10:22:32;;;;;;;5.15;4.80;;;27.00;96.20;;;27.92;47.38;97791.88;5290347;28;20286;-78
2021/07/27 10:25:14;;;;;;;5.80;5.22;;;27.00;97.20;;;27.74;46.29;97790.31;5282211;28;20629;-79
2021/07/27 10:27:52;;;;;;;5.63;5.22;;;27.00;96.40;;;27.86;46.97;97789.31;5285335;28;20183;-78
2021/07/27 10:30:32;;;;;;;5.43;4.93;;;26.80;97.00;;;27.75;46.86;97781.53;5279651;28;20191;-79
2021/07/27 10:33:05;;;;;;;5.70;5.20;;;26.90;96.90;;;27.89;47.71;97788.41;5268338;28;20230;-79
2021/07/27 10:35:38;;;;;;;5.75;5.25;;;27.00;97.00;;;27.77;48.64;97790.28;5268369;28;20199;-78
2021/07/27 10:38:13;;;;;;;6.30;5.70;;;26.90;98.10;;;27.80;48.47;97786.78;5277137;28;20301;-78
2021/07/27 10:40:49;;;;;;;6.22;5.63;;;26.80;97.90;;;27.54;47.88;97776.56;5278668;28;20190;-78
2021/07/27 10:43:27;;;;;;;5.65;5.15;;;26.80;97.10;;;27.59;49.79;97780.00;5290414;28;20214;-79
2021/07/27 10:46:01;;;;;;;5.80;5.40;;;26.70;98.20;;;27.50;47.99;97783.63;5289617;27;20673;-78
2021/07/27 10:48:35;;;;;;;6.00;5.50;;;26.70;97.10;;;27.48;50.09;97787.16;5290337;28;20197;-78
2021/07/27 10:51:09;;;;;;;5.95;5.38;;;26.70;98.20;;;27.63;47.95;97776.44;5278261;28;20826;-78
2021/07/27 10:53:51;;;;;;;5.93;5.43;;;26.70;97.10;;;27.60;47.97;97768.59;5269277;28;20769;-78
2021/07/27 10:56:30;;;;;;;5.60;5.15;;;26.70;97.50;;;27.59;47.00;97764.25;5269677;28;20209;-78
2021/07/27 10:59:03;;;;;;;5.38;4.95;;;26.70;95.90;;;27.67;46.43;97770.28;5269497;28;20223;-78
2021/07/27 11:01:36;;;;;;;5.43;4.93;;;26.90;96.10;;;27.77;46.56;97771.03;5269877;28;20601;-78
2021/07/27 11:04:11;;;;;;;5.88;5.38;;;26.90;95.50;;;27.75;46.26;97776.28;5281201;28;20207;-78
2021/07/27 11:06:44;;;;;;;5.53;5.13;;;26.90;95.70;;;27.85;44.43;97771.84;5290420;28;20208;-77
2021/07/27 11:09:17;;;;;;;5.55;5.05;;;26.90;94.60;;;27.86;43.76;97770.94;5289964;27;20186;-78